Share

La Crosse, KS (67548)

Rural Ellis Co. (KKSHAYS15) Elev 2077 ft | 38.81 °N, 99.37 °W | Change Station

Current weather conditions updated 2 minutes ago

Clear
Clear
67.3 °F
Feels Like 67.3 °F
N
26.4
Wind Variable Wind from SSW
Sunrise 6:55 AM
Sunset 8:17 PM
Moon Waning Gibbous

Today is forecast to be Much Warmer than yesterday. A few showers developing late tonight.

Pressure 29.95 in
Visibility 10.0 miles
Clouds Clear
Dew Point 53 °F
Humidity 60%
Rainfall 0.00 in
Snow Depth Not available.
UV 5 out of 16
Pollen 11.50 out of 12
Air Quality Not available.
Flu Activity No Activity
METAR KHYS 191515Z AUTO 19021G30KT 10SM CLR 18/09 A2995 RMK AO1

More Conditions Fewer Conditions

Pressure 29.95 in
Visibility 10.0 miles
Clouds Clear
Dew Point 53 °F
Humidity 60%
Rainfall 0.00 in
Snow Depth Not available.
UV 5 out of 16
Pollen 11.50 out of 12
Air Quality Not available.
Flu Activity No Activity
METAR KHYS 191515Z AUTO 19021G30KT 10SM CLR 18/09 A2995 RMK AO1

More Conditions Fewer Conditions

10-Day Weather Forecast

Almanac

Astronomy

Apr. 19, 2014 Rise Set
Actual Time 6:55 AM CDT 8:17 PM CDT
Civil Twilight 6:27 AM CDT 8:45 PM CDT
Nautical Twilight 5:54 AM CDT 9:18 PM CDT
Astronomical Twilight 5:19 AM CDT 9:53 PM CDT
Moon 12:01 AM CDT 10:17 AM CDT
Length of Visible Light 14h 17m
Length of Day
13h 22m
Tomorrow will be 2m 19s longer.
Waning Gibbous, 79% of the Moon is Illuminated
Today
Waning Gibbous
Apr 22
Last Quarter
Apr 29
New
May 6
First Quarter
May 14
Full

Today's Extremes

State Highs State Lows

Community

  • A Glorious Morning
    A Glorious Morning
  • Tender Rays Of Hope
    Tender Rays Of Hope
  • Bleeding Hearts
    Bleeding Hearts
  • Sunset Silhouettes
    Sunset Silhouettes
  • FL sunset Perico Isle
    FL sunset Perico Isle

WunderPhotos

Upload Photos

1,702,765 photos uploaded!

WunderBlogs® & News

Nearby

Snow Depth

Station Depth Elevation
No new snow has been reported.

Coastal Water Temperatures

Place Temperature
No Stations Reporting

Earthquake Activity

City Distance Mag. Time & Date
Medford, Oklahoma 141 miles 3.0 5:38 PM CDT
2014-04-12
Minimum magnitude displayed is 2.5.

Nearby Weather Stations

Station Location Temp. Dew Point Humidity Wind Precip. Elev Updated Type
Rural Ellis Co., Hays, KS 67.3 °F 53 °F 60% SSW  at  26.4 mph - / hr 2077 ft 10:25 AM CDT Normal
Sarrada Farms 2.0 N, 2.3 E, Rozel, KS 66.9 °F 51 °F 57% SSW  at  19.9 mph 0.00 in / hr 2073 ft 10:28 AM CDT Rapid Fire
Hays Kansas Weather, Hays, KS 66.0 °F 50 °F 56% South  at  24.2 mph 0.00 in / hr 2067 ft 10:28 AM CDT Rapid Fire

Show More Stations Show Fewer Stations

What do you think?

We're not finished. Please let us know what you like, what you don't like, and what you are still missing.